sensor_id;sensor_type;location;lat;lon;timestamp;P1;durP1;ratioP1;P2;durP2;ratioP2
54197;SDS011;40105;52.366;17.000;2023-03-19T00:01:12;108.88;;;43.88;;
54197;SDS011;40105;52.366;17.000;2023-03-19T00:03:37;119.07;;;42.40;;
54197;SDS011;40105;52.366;17.000;2023-03-19T00:06:02;134.90;;;42.23;;
54197;SDS011;40105;52.366;17.000;2023-03-19T00:08:27;122.15;;;42.50;;
54197;SDS011;40105;52.366;17.000;2023-03-19T00:10:53;108.03;;;41.63;;
54197;SDS011;40105;52.366;17.000;2023-03-19T00:13:18;120.43;;;42.00;;
54197;SDS011;40105;52.366;17.000;2023-03-19T00:15:44;125.28;;;42.40;;
54197;SDS011;40105;52.366;17.000;2023-03-19T00:18:09;120.75;;;42.63;;
54197;SDS011;40105;52.366;17.000;2023-03-19T00:20:34;90.37;;;37.50;;
54197;SDS011;40105;52.366;17.000;2023-03-19T00:23:00;109.00;;;39.92;;
54197;SDS011;40105;52.366;17.000;2023-03-19T00:25:25;110.25;;;41.90;;
54197;SDS011;40105;52.366;17.000;2023-03-19T00:27:51;108.47;;;41.47;;
54197;SDS011;40105;52.366;17.000;2023-03-19T00:30:18;97.45;;;37.55;;
54197;SDS011;40105;52.366;17.000;2023-03-19T00:32:43;113.05;;;39.35;;
54197;SDS011;40105;52.366;17.000;2023-03-19T00:35:08;96.10;;;37.23;;
54197;SDS011;40105;52.366;17.000;2023-03-19T00:37:34;113.97;;;39.00;;
54197;SDS011;40105;52.366;17.000;2023-03-19T00:40:00;111.65;;;40.35;;
54197;SDS011;40105;52.366;17.000;2023-03-19T00:42:25;95.28;;;39.58;;
54197;SDS011;40105;52.366;17.000;2023-03-19T00:44:51;113.82;;;41.72;;
54197;SDS011;40105;52.366;17.000;2023-03-19T00:47:16;110.80;;;40.33;;
54197;SDS011;40105;52.366;17.000;2023-03-19T00:49:41;108.33;;;38.43;;
54197;SDS011;40105;52.366;17.000;2023-03-19T00:52:06;93.27;;;39.00;;
54197;SDS011;40105;52.366;17.000;2023-03-19T00:54:31;105.10;;;37.73;;
54197;SDS011;40105;52.366;17.000;2023-03-19T00:56:57;83.53;;;35.07;;
54197;SDS011;40105;52.366;17.000;2023-03-19T00:59:22;99.73;;;35.97;;
54197;SDS011;40105;52.366;17.000;2023-03-19T01:01:49;95.72;;;35.47;;
54197;SDS011;40105;52.366;17.000;2023-03-19T01:04:15;95.63;;;33.40;;
54197;SDS011;40105;52.366;17.000;2023-03-19T01:06:40;96.28;;;33.58;;
54197;SDS011;40105;52.366;17.000;2023-03-19T01:09:05;88.53;;;35.17;;
54197;SDS011;40105;52.366;17.000;2023-03-19T01:11:31;104.15;;;33.83;;
54197;SDS011;40105;52.366;17.000;2023-03-19T01:13:56;87.40;;;35.47;;
54197;SDS011;40105;52.366;17.000;2023-03-19T01:16:21;89.83;;;33.90;;
54197;SDS011;40105;52.366;17.000;2023-03-19T01:18:46;87.30;;;31.00;;
54197;SDS011;40105;52.366;17.000;2023-03-19T01:21:11;106.53;;;34.60;;
54197;SDS011;40105;52.366;17.000;2023-03-19T01:23:37;94.05;;;32.95;;
54197;SDS011;40105;52.366;17.000;2023-03-19T01:26:02;75.40;;;29.60;;
54197;SDS011;40105;52.366;17.000;2023-03-19T01:28:28;93.70;;;31.27;;
54197;SDS011;40105;52.366;17.000;2023-03-19T01:30:57;85.60;;;32.50;;
54197;SDS011;40105;52.366;17.000;2023-03-19T01:33:22;88.28;;;32.38;;
54197;SDS011;40105;52.366;17.000;2023-03-19T01:35:47;89.70;;;32.47;;
54197;SDS011;40105;52.366;17.000;2023-03-19T01:38:13;91.13;;;31.23;;
54197;SDS011;40105;52.366;17.000;2023-03-19T01:40:42;87.10;;;30.48;;
54197;SDS011;40105;52.366;17.000;2023-03-19T01:45:40;105.00;;;30.85;;
54197;SDS011;40105;52.366;17.000;2023-03-19T01:48:06;88.63;;;32.88;;
54197;SDS011;40105;52.366;17.000;2023-03-19T01:50:40;77.88;;;29.98;;
54197;SDS011;40105;52.366;17.000;2023-03-19T01:53:06;90.00;;;30.08;;
54197;SDS011;40105;52.366;17.000;2023-03-19T01:55:31;82.13;;;30.75;;
54197;SDS011;40105;52.366;17.000;2023-03-19T01:57:56;77.30;;;27.70;;
54197;SDS011;40105;52.366;17.000;2023-03-19T02:00:22;88.33;;;30.73;;
54197;SDS011;40105;52.366;17.000;2023-03-19T02:02:47;82.60;;;30.27;;
54197;SDS011;40105;52.366;17.000;2023-03-19T02:05:13;80.80;;;30.73;;
54197;SDS011;40105;52.366;17.000;2023-03-19T02:07:40;84.93;;;30.90;;
54197;SDS011;40105;52.366;17.000;2023-03-19T02:10:07;76.70;;;29.77;;
54197;SDS011;40105;52.366;17.000;2023-03-19T02:12:33;80.40;;;30.90;;
54197;SDS011;40105;52.366;17.000;2023-03-19T02:14:58;86.13;;;30.77;;
54197;SDS011;40105;52.366;17.000;2023-03-19T02:17:23;97.85;;;30.58;;
54197;SDS011;40105;52.366;17.000;2023-03-19T02:22:42;90.47;;;31.35;;
54197;SDS011;40105;52.366;17.000;2023-03-19T02:25:12;88.70;;;31.45;;
54197;SDS011;40105;52.366;17.000;2023-03-19T02:27:38;81.60;;;31.20;;
54197;SDS011;40105;52.366;17.000;2023-03-19T02:30:16;94.70;;;30.13;;
54197;SDS011;40105;52.366;17.000;2023-03-19T02:32:41;81.97;;;31.35;;
54197;SDS011;40105;52.366;17.000;2023-03-19T02:35:07;68.33;;;30.00;;
54197;SDS011;40105;52.366;17.000;2023-03-19T02:37:33;79.80;;;30.27;;
54197;SDS011;40105;52.366;17.000;2023-03-19T02:39:59;81.97;;;31.10;;
54197;SDS011;40105;52.366;17.000;2023-03-19T02:42:28;92.25;;;31.25;;
54197;SDS011;40105;52.366;17.000;2023-03-19T02:44:54;84.35;;;31.08;;
54197;SDS011;40105;52.366;17.000;2023-03-19T02:47:19;87.72;;;29.88;;
54197;SDS011;40105;52.366;17.000;2023-03-19T02:49:44;78.17;;;27.80;;
54197;SDS011;40105;52.366;17.000;2023-03-19T02:52:10;81.82;;;28.60;;
54197;SDS011;40105;52.366;17.000;2023-03-19T02:54:35;77.28;;;28.75;;
54197;SDS011;40105;52.366;17.000;2023-03-19T02:57:00;85.73;;;30.23;;
54197;SDS011;40105;52.366;17.000;2023-03-19T02:59:25;75.23;;;30.03;;
54197;SDS011;40105;52.366;17.000;2023-03-19T03:01:51;77.53;;;30.37;;
54197;SDS011;40105;52.366;17.000;2023-03-19T03:04:16;79.43;;;29.00;;
54197;SDS011;40105;52.366;17.000;2023-03-19T03:06:42;73.17;;;28.53;;
54197;SDS011;40105;52.366;17.000;2023-03-19T03:09:07;76.65;;;28.80;;
54197;SDS011;40105;52.366;17.000;2023-03-19T03:11:33;68.18;;;27.02;;
54197;SDS011;40105;52.366;17.000;2023-03-19T03:13:58;78.97;;;30.10;;
54197;SDS011;40105;52.366;17.000;2023-03-19T03:16:24;71.63;;;28.70;;
54197;SDS011;40105;52.366;17.000;2023-03-19T03:18:49;77.55;;;27.52;;
54197;SDS011;40105;52.366;17.000;2023-03-19T03:21:14;75.07;;;27.97;;
54197;SDS011;40105;52.366;17.000;2023-03-19T03:23:43;88.25;;;29.00;;
54197;SDS011;40105;52.366;17.000;2023-03-19T03:26:09;64.63;;;26.13;;
54197;SDS011;40105;52.366;17.000;2023-03-19T03:28:34;77.37;;;26.27;;
54197;SDS011;40105;52.366;17.000;2023-03-19T03:30:59;81.18;;;28.13;;
54197;SDS011;40105;52.366;17.000;2023-03-19T03:33:25;69.10;;;28.10;;
54197;SDS011;40105;52.366;17.000;2023-03-19T03:35:50;75.53;;;25.90;;
54197;SDS011;40105;52.366;17.000;2023-03-19T03:38:15;69.75;;;27.30;;
54197;SDS011;40105;52.366;17.000;2023-03-19T03:40:42;75.28;;;26.83;;
54197;SDS011;40105;52.366;17.000;2023-03-19T03:43:07;67.18;;;26.17;;
54197;SDS011;40105;52.366;17.000;2023-03-19T03:45:33;64.18;;;25.38;;
54197;SDS011;40105;52.366;17.000;2023-03-19T03:47:58;79.87;;;28.30;;
54197;SDS011;40105;52.366;17.000;2023-03-19T03:50:23;57.80;;;22.90;;
54197;SDS011;40105;52.366;17.000;2023-03-19T03:52:48;71.30;;;25.47;;
54197;SDS011;40105;52.366;17.000;2023-03-19T03:55:13;67.63;;;25.77;;
54197;SDS011;40105;52.366;17.000;2023-03-19T03:57:39;54.25;;;24.67;;
54197;SDS011;40105;52.366;17.000;2023-03-19T04:00:04;75.82;;;26.48;;
54197;SDS011;40105;52.366;17.000;2023-03-19T04:02:29;71.88;;;24.30;;
54197;SDS011;40105;52.366;17.000;2023-03-19T04:04:55;79.90;;;25.47;;
54197;SDS011;40105;52.366;17.000;2023-03-19T04:07:20;70.23;;;26.07;;
54197;SDS011;40105;52.366;17.000;2023-03-19T04:09:45;72.50;;;26.13;;
54197;SDS011;40105;52.366;17.000;2023-03-19T04:12:11;67.57;;;25.60;;
54197;SDS011;40105;52.366;17.000;2023-03-19T04:14:36;67.60;;;27.63;;
54197;SDS011;40105;52.366;17.000;2023-03-19T04:17:01;70.50;;;25.27;;
54197;SDS011;40105;52.366;17.000;2023-03-19T04:19:27;70.90;;;28.15;;
54197;SDS011;40105;52.366;17.000;2023-03-19T04:21:52;73.65;;;25.83;;
54197;SDS011;40105;52.366;17.000;2023-03-19T04:24:17;76.33;;;27.93;;
54197;SDS011;40105;52.366;17.000;2023-03-19T04:26:42;67.38;;;26.10;;
54197;SDS011;40105;52.366;17.000;2023-03-19T04:29:07;80.77;;;26.70;;
54197;SDS011;40105;52.366;17.000;2023-03-19T04:31:33;69.25;;;25.60;;
54197;SDS011;40105;52.366;17.000;2023-03-19T04:33:58;77.90;;;26.23;;
54197;SDS011;40105;52.366;17.000;2023-03-19T04:36:24;71.82;;;27.02;;
54197;SDS011;40105;52.366;17.000;2023-03-19T04:38:49;74.07;;;27.00;;
54197;SDS011;40105;52.366;17.000;2023-03-19T04:41:15;65.47;;;24.60;;
54197;SDS011;40105;52.366;17.000;2023-03-19T04:43:40;67.47;;;26.63;;
54197;SDS011;40105;52.366;17.000;2023-03-19T04:46:05;84.85;;;28.58;;
54197;SDS011;40105;52.366;17.000;2023-03-19T04:48:32;71.57;;;26.58;;
54197;SDS011;40105;52.366;17.000;2023-03-19T04:50:57;65.75;;;24.33;;
54197;SDS011;40105;52.366;17.000;2023-03-19T04:53:23;60.08;;;24.85;;
54197;SDS011;40105;52.366;17.000;2023-03-19T04:55:49;85.00;;;26.23;;
54197;SDS011;40105;52.366;17.000;2023-03-19T04:58:15;74.00;;;25.17;;
54197;SDS011;40105;52.366;17.000;2023-03-19T05:00:40;66.80;;;26.23;;
54197;SDS011;40105;52.366;17.000;2023-03-19T05:03:05;59.60;;;24.45;;
54197;SDS011;40105;52.366;17.000;2023-03-19T05:05:31;69.40;;;25.65;;
54197;SDS011;40105;52.366;17.000;2023-03-19T05:07:56;70.70;;;23.97;;
54197;SDS011;40105;52.366;17.000;2023-03-19T05:10:22;72.63;;;27.15;;
54197;SDS011;40105;52.366;17.000;2023-03-19T05:12:47;76.32;;;26.00;;
54197;SDS011;40105;52.366;17.000;2023-03-19T05:15:13;67.13;;;25.20;;
54197;SDS011;40105;52.366;17.000;2023-03-19T05:17:38;73.53;;;26.17;;
54197;SDS011;40105;52.366;17.000;2023-03-19T05:20:03;68.17;;;26.37;;
54197;SDS011;40105;52.366;17.000;2023-03-19T05:22:29;70.05;;;25.38;;
54197;SDS011;40105;52.366;17.000;2023-03-19T05:24:54;80.07;;;25.47;;
54197;SDS011;40105;52.366;17.000;2023-03-19T05:27:19;82.97;;;27.13;;
54197;SDS011;40105;52.366;17.000;2023-03-19T05:29:44;59.90;;;23.63;;
54197;SDS011;40105;52.366;17.000;2023-03-19T05:32:10;65.53;;;25.52;;
54197;SDS011;40105;52.366;17.000;2023-03-19T05:34:36;65.72;;;27.50;;
54197;SDS011;40105;52.366;17.000;2023-03-19T05:37:01;61.60;;;25.20;;
54197;SDS011;40105;52.366;17.000;2023-03-19T05:39:26;90.27;;;27.40;;
54197;SDS011;40105;52.366;17.000;2023-03-19T05:41:51;65.50;;;24.83;;
54197;SDS011;40105;52.366;17.000;2023-03-19T05:44:17;58.80;;;25.60;;
54197;SDS011;40105;52.366;17.000;2023-03-19T05:46:42;74.15;;;28.35;;
54197;SDS011;40105;52.366;17.000;2023-03-19T05:49:07;69.47;;;27.85;;
54197;SDS011;40105;52.366;17.000;2023-03-19T05:51:33;70.32;;;26.98;;
54197;SDS011;40105;52.366;17.000;2023-03-19T05:53:58;68.70;;;27.63;;
54197;SDS011;40105;52.366;17.000;2023-03-19T05:56:23;72.00;;;28.10;;
54197;SDS011;40105;52.366;17.000;2023-03-19T05:58:48;61.83;;;27.87;;
54197;SDS011;40105;52.366;17.000;2023-03-19T06:01:14;77.15;;;28.42;;
54197;SDS011;40105;52.366;17.000;2023-03-19T06:03:40;81.97;;;29.70;;
54197;SDS011;40105;52.366;17.000;2023-03-19T06:06:05;72.18;;;28.83;;
54197;SDS011;40105;52.366;17.000;2023-03-19T06:08:31;65.78;;;27.38;;
54197;SDS011;40105;52.366;17.000;2023-03-19T06:10:56;75.77;;;28.20;;
54197;SDS011;40105;52.366;17.000;2023-03-19T06:13:21;65.97;;;27.23;;
54197;SDS011;40105;52.366;17.000;2023-03-19T06:15:47;69.77;;;26.33;;
54197;SDS011;40105;52.366;17.000;2023-03-19T06:18:13;65.43;;;25.40;;
54197;SDS011;40105;52.366;17.000;2023-03-19T06:20:38;59.47;;;24.77;;
54197;SDS011;40105;52.366;17.000;2023-03-19T06:23:04;58.08;;;26.08;;
54197;SDS011;40105;52.366;17.000;2023-03-19T06:25:29;74.85;;;28.17;;
54197;SDS011;40105;52.366;17.000;2023-03-19T06:27:54;63.37;;;25.33;;
54197;SDS011;40105;52.366;17.000;2023-03-19T06:30:19;69.77;;;26.40;;
54197;SDS011;40105;52.366;17.000;2023-03-19T06:32:45;63.58;;;25.17;;
54197;SDS011;40105;52.366;17.000;2023-03-19T06:35:10;58.47;;;24.33;;
54197;SDS011;40105;52.366;17.000;2023-03-19T06:37:36;68.13;;;25.25;;
54197;SDS011;40105;52.366;17.000;2023-03-19T06:40:02;60.40;;;23.90;;
54197;SDS011;40105;52.366;17.000;2023-03-19T06:42:28;62.78;;;24.95;;
54197;SDS011;40105;52.366;17.000;2023-03-19T06:44:54;60.97;;;25.52;;
54197;SDS011;40105;52.366;17.000;2023-03-19T06:47:19;53.47;;;24.43;;
54197;SDS011;40105;52.366;17.000;2023-03-19T06:49:44;64.63;;;25.50;;
54197;SDS011;40105;52.366;17.000;2023-03-19T06:52:09;63.20;;;26.07;;
54197;SDS011;40105;52.366;17.000;2023-03-19T06:54:35;81.50;;;33.17;;
54197;SDS011;40105;52.366;17.000;2023-03-19T06:57:00;69.90;;;27.38;;
54197;SDS011;40105;52.366;17.000;2023-03-19T06:59:25;66.70;;;29.27;;
54197;SDS011;40105;52.366;17.000;2023-03-19T07:01:50;75.63;;;28.70;;
54197;SDS011;40105;52.366;17.000;2023-03-19T07:04:16;63.25;;;25.90;;
54197;SDS011;40105;52.366;17.000;2023-03-19T07:06:41;57.45;;;24.50;;
54197;SDS011;40105;52.366;17.000;2023-03-19T07:09:07;55.13;;;24.33;;
54197;SDS011;40105;52.366;17.000;2023-03-19T07:11:32;70.80;;;24.23;;
54197;SDS011;40105;52.366;17.000;2023-03-19T07:13:57;59.57;;;23.87;;
54197;SDS011;40105;52.366;17.000;2023-03-19T07:16:22;69.77;;;26.50;;
54197;SDS011;40105;52.366;17.000;2023-03-19T07:18:47;65.53;;;24.67;;
54197;SDS011;40105;52.366;17.000;2023-03-19T07:21:12;56.53;;;24.07;;
54197;SDS011;40105;52.366;17.000;2023-03-19T07:23:38;54.97;;;22.57;;
54197;SDS011;40105;52.366;17.000;2023-03-19T07:26:03;66.00;;;25.00;;
54197;SDS011;40105;52.366;17.000;2023-03-19T07:28:28;61.07;;;22.20;;
54197;SDS011;40105;52.366;17.000;2023-03-19T07:30:54;54.85;;;21.95;;
54197;SDS011;40105;52.366;17.000;2023-03-19T07:33:20;54.90;;;22.65;;
54197;SDS011;40105;52.366;17.000;2023-03-19T07:35:46;57.33;;;23.13;;
54197;SDS011;40105;52.366;17.000;2023-03-19T07:38:11;56.97;;;22.75;;
54197;SDS011;40105;52.366;17.000;2023-03-19T07:40:36;56.10;;;23.57;;
54197;SDS011;40105;52.366;17.000;2023-03-19T07:43:02;52.28;;;22.60;;
54197;SDS011;40105;52.366;17.000;2023-03-19T07:45:27;49.78;;;24.02;;
54197;SDS011;40105;52.366;17.000;2023-03-19T07:47:52;53.30;;;24.23;;
54197;SDS011;40105;52.366;17.000;2023-03-19T07:50:18;50.93;;;22.40;;
54197;SDS011;40105;52.366;17.000;2023-03-19T07:52:46;55.57;;;22.07;;
54197;SDS011;40105;52.366;17.000;2023-03-19T07:55:12;49.22;;;22.52;;
54197;SDS011;40105;52.366;17.000;2023-03-19T07:57:37;50.75;;;21.40;;
54197;SDS011;40105;52.366;17.000;2023-03-19T08:00:03;58.25;;;20.35;;
54197;SDS011;40105;52.366;17.000;2023-03-19T08:02:28;56.83;;;23.75;;
54197;SDS011;40105;52.366;17.000;2023-03-19T08:04:54;72.90;;;30.03;;
54197;SDS011;40105;52.366;17.000;2023-03-19T08:07:19;49.13;;;21.40;;
54197;SDS011;40105;52.366;17.000;2023-03-19T08:09:45;53.17;;;23.80;;
54197;SDS011;40105;52.366;17.000;2023-03-19T08:12:10;65.53;;;30.67;;
54197;SDS011;40105;52.366;17.000;2023-03-19T08:14:36;45.87;;;21.87;;
54197;SDS011;40105;52.366;17.000;2023-03-19T08:17:01;48.40;;;19.23;;
54197;SDS011;40105;52.366;17.000;2023-03-19T08:19:26;47.83;;;19.20;;
54197;SDS011;40105;52.366;17.000;2023-03-19T08:21:51;45.63;;;19.53;;
54197;SDS011;40105;52.366;17.000;2023-03-19T08:24:16;40.97;;;18.00;;
54197;SDS011;40105;52.366;17.000;2023-03-19T08:26:42;46.10;;;19.02;;
54197;SDS011;40105;52.366;17.000;2023-03-19T08:29:07;46.20;;;19.23;;
54197;SDS011;40105;52.366;17.000;2023-03-19T08:31:33;44.88;;;20.60;;
54197;SDS011;40105;52.366;17.000;2023-03-19T08:33:58;46.42;;;19.52;;
54197;SDS011;40105;52.366;17.000;2023-03-19T08:38:55;38.25;;;15.77;;
54197;SDS011;40105;52.366;17.000;2023-03-19T08:41:20;42.50;;;16.33;;
54197;SDS011;40105;52.366;17.000;2023-03-19T08:43:46;41.60;;;16.63;;
54197;SDS011;40105;52.366;17.000;2023-03-19T08:46:11;40.83;;;18.13;;
54197;SDS011;40105;52.366;17.000;2023-03-19T08:48:36;45.23;;;17.03;;
54197;SDS011;40105;52.366;17.000;2023-03-19T08:51:02;34.33;;;15.90;;
54197;SDS011;40105;52.366;17.000;2023-03-19T08:53:28;39.35;;;17.90;;
54197;SDS011;40105;52.366;17.000;2023-03-19T08:55:54;30.95;;;15.50;;
54197;SDS011;40105;52.366;17.000;2023-03-19T08:58:19;40.95;;;16.83;;
54197;SDS011;40105;52.366;17.000;2023-03-19T09:00:45;46.13;;;17.80;;
54197;SDS011;40105;52.366;17.000;2023-03-19T09:03:10;39.70;;;17.05;;
54197;SDS011;40105;52.366;17.000;2023-03-19T09:05:36;35.77;;;17.13;;
54197;SDS011;40105;52.366;17.000;2023-03-19T09:08:01;43.10;;;16.63;;
54197;SDS011;40105;52.366;17.000;2023-03-19T09:10:26;37.07;;;19.80;;
54197;SDS011;40105;52.366;17.000;2023-03-19T09:12:51;42.00;;;19.00;;
54197;SDS011;40105;52.366;17.000;2023-03-19T09:15:16;47.17;;;18.50;;
54197;SDS011;40105;52.366;17.000;2023-03-19T09:17:42;39.70;;;17.30;;
54197;SDS011;40105;52.366;17.000;2023-03-19T09:20:07;35.90;;;15.27;;
54197;SDS011;40105;52.366;17.000;2023-03-19T09:22:32;37.50;;;17.15;;
54197;SDS011;40105;52.366;17.000;2023-03-19T09:24:58;39.40;;;14.77;;
54197;SDS011;40105;52.366;17.000;2023-03-19T09:27:23;31.13;;;13.20;;
54197;SDS011;40105;52.366;17.000;2023-03-19T09:29:49;35.47;;;13.38;;
54197;SDS011;40105;52.366;17.000;2023-03-19T09:32:14;33.15;;;11.13;;
54197;SDS011;40105;52.366;17.000;2023-03-19T09:34:39;29.27;;;11.80;;
54197;SDS011;40105;52.366;17.000;2023-03-19T09:37:04;30.77;;;12.10;;
54197;SDS011;40105;52.366;17.000;2023-03-19T09:39:30;28.70;;;12.48;;
54197;SDS011;40105;52.366;17.000;2023-03-19T09:44:28;25.58;;;11.55;;
54197;SDS011;40105;52.366;17.000;2023-03-19T09:47:02;37.25;;;10.70;;
54197;SDS011;40105;52.366;17.000;2023-03-19T09:49:32;26.65;;;12.05;;
54197;SDS011;40105;52.366;17.000;2023-03-19T09:52:07;25.75;;;12.07;;
54197;SDS011;40105;52.366;17.000;2023-03-19T09:54:38;29.48;;;11.68;;
54197;SDS011;40105;52.366;17.000;2023-03-19T09:57:07;30.02;;;13.05;;
54197;SDS011;40105;52.366;17.000;2023-03-19T09:59:33;26.30;;;11.98;;
54197;SDS011;40105;52.366;17.000;2023-03-19T10:04:40;31.42;;;13.00;;
54197;SDS011;40105;52.366;17.000;2023-03-19T10:17:18;25.13;;;12.07;;
54197;SDS011;40105;52.366;17.000;2023-03-19T10:19:52;31.05;;;11.95;;
54197;SDS011;40105;52.366;17.000;2023-03-19T10:22:21;29.40;;;13.20;;
54197;SDS011;40105;52.366;17.000;2023-03-19T10:24:47;29.05;;;12.50;;
54197;SDS011;40105;52.366;17.000;2023-03-19T10:27:14;35.72;;;12.75;;
54197;SDS011;40105;52.366;17.000;2023-03-19T10:29:39;30.08;;;13.30;;
54197;SDS011;40105;52.366;17.000;2023-03-19T10:34:48;27.48;;;13.50;;
54197;SDS011;40105;52.366;17.000;2023-03-19T10:37:15;24.90;;;12.48;;
54197;SDS011;40105;52.366;17.000;2023-03-19T10:39:42;29.55;;;13.50;;
54197;SDS011;40105;52.366;17.000;2023-03-19T10:44:53;27.98;;;12.95;;
54197;SDS011;40105;52.366;17.000;2023-03-19T10:47:20;22.52;;;12.30;;
54197;SDS011;40105;52.366;17.000;2023-03-19T10:49:49;31.40;;;11.55;;
54197;SDS011;40105;52.366;17.000;2023-03-19T10:54:45;36.00;;;12.60;;
54197;SDS011;40105;52.366;17.000;2023-03-19T10:57:27;30.33;;;13.77;;
54197;SDS011;40105;52.366;17.000;2023-03-19T10:59:52;31.05;;;12.93;;
54197;SDS011;40105;52.366;17.000;2023-03-19T11:02:19;31.50;;;12.18;;
54197;SDS011;40105;52.366;17.000;2023-03-19T11:04:45;34.17;;;11.95;;
54197;SDS011;40105;52.366;17.000;2023-03-19T11:07:17;23.77;;;11.93;;
54197;SDS011;40105;52.366;17.000;2023-03-19T11:09:43;35.42;;;15.23;;
54197;SDS011;40105;52.366;17.000;2023-03-19T11:12:19;23.52;;;11.93;;
54197;SDS011;40105;52.366;17.000;2023-03-19T11:14:49;33.95;;;14.63;;
54197;SDS011;40105;52.366;17.000;2023-03-19T11:19:40;28.30;;;12.20;;
54197;SDS011;40105;52.366;17.000;2023-03-19T11:24:31;28.40;;;12.25;;
54197;SDS011;40105;52.366;17.000;2023-03-19T11:26:57;29.33;;;11.88;;
54197;SDS011;40105;52.366;17.000;2023-03-19T11:29:23;26.40;;;13.13;;
54197;SDS011;40105;52.366;17.000;2023-03-19T11:34:44;28.23;;;11.93;;
54197;SDS011;40105;52.366;17.000;2023-03-19T11:39:58;35.83;;;13.32;;
54197;SDS011;40105;52.366;17.000;2023-03-19T11:52:56;36.85;;;13.73;;
54197;SDS011;40105;52.366;17.000;2023-03-19T11:55:27;34.35;;;12.55;;
54197;SDS011;40105;52.366;17.000;2023-03-19T11:58:03;35.17;;;12.50;;
54197;SDS011;40105;52.366;17.000;2023-03-19T12:00:35;30.23;;;12.60;;
54197;SDS011;40105;52.366;17.000;2023-03-19T12:05:32;30.13;;;11.82;;
54197;SDS011;40105;52.366;17.000;2023-03-19T12:15:46;30.10;;;15.05;;
54197;SDS011;40105;52.366;17.000;2023-03-19T12:23:58;29.45;;;14.43;;
54197;SDS011;40105;52.366;17.000;2023-03-19T12:28:53;37.70;;;13.87;;
54197;SDS011;40105;52.366;17.000;2023-03-19T12:31:32;35.20;;;13.63;;
54197;SDS011;40105;52.366;17.000;2023-03-19T12:34:11;30.92;;;12.65;;
54197;SDS011;40105;52.366;17.000;2023-03-19T12:36:49;28.38;;;11.63;;
54197;SDS011;40105;52.366;17.000;2023-03-19T12:39:17;39.38;;;12.30;;
54197;SDS011;40105;52.366;17.000;2023-03-19T12:41:44;27.75;;;12.48;;
54197;SDS011;40105;52.366;17.000;2023-03-19T12:44:18;26.15;;;12.88;;
54197;SDS011;40105;52.366;17.000;2023-03-19T12:46:53;28.23;;;12.48;;
54197;SDS011;40105;52.366;17.000;2023-03-19T12:49:20;30.75;;;13.60;;
54197;SDS011;40105;52.366;17.000;2023-03-19T12:51:50;33.10;;;13.15;;
54197;SDS011;40105;52.366;17.000;2023-03-19T12:54:20;36.55;;;15.15;;
54197;SDS011;40105;52.366;17.000;2023-03-19T12:57:01;33.20;;;14.15;;
54197;SDS011;40105;52.366;17.000;2023-03-19T13:02:27;39.78;;;13.02;;
54197;SDS011;40105;52.366;17.000;2023-03-19T13:04:55;24.08;;;10.75;;
54197;SDS011;40105;52.366;17.000;2023-03-19T13:07:23;26.42;;;11.90;;
54197;SDS011;40105;52.366;17.000;2023-03-19T13:09:57;23.40;;;11.43;;
54197;SDS011;40105;52.366;17.000;2023-03-19T13:12:25;29.52;;;12.02;;
54197;SDS011;40105;52.366;17.000;2023-03-19T13:15:03;30.92;;;12.55;;
54197;SDS011;40105;52.366;17.000;2023-03-19T13:17:35;32.30;;;12.63;;
54197;SDS011;40105;52.366;17.000;2023-03-19T13:20:08;26.40;;;11.68;;
54197;SDS011;40105;52.366;17.000;2023-03-19T13:22:40;26.88;;;11.75;;
54197;SDS011;40105;52.366;17.000;2023-03-19T13:25:09;30.67;;;11.60;;
54197;SDS011;40105;52.366;17.000;2023-03-19T13:27:38;29.42;;;12.10;;
54197;SDS011;40105;52.366;17.000;2023-03-19T13:30:15;31.50;;;13.70;;
54197;SDS011;40105;52.366;17.000;2023-03-19T13:32:42;31.33;;;12.05;;
54197;SDS011;40105;52.366;17.000;2023-03-19T13:37:40;24.65;;;10.57;;
54197;SDS011;40105;52.366;17.000;2023-03-19T13:40:34;36.63;;;14.68;;
54197;SDS011;40105;52.366;17.000;2023-03-19T13:42:55;34.17;;;13.82;;
54197;SDS011;40105;52.366;17.000;2023-03-19T13:45:33;36.50;;;13.75;;
54197;SDS011;40105;52.366;17.000;2023-03-19T13:48:21;37.63;;;13.82;;
54197;SDS011;40105;52.366;17.000;2023-03-19T13:50:54;31.77;;;14.07;;
54197;SDS011;40105;52.366;17.000;2023-03-19T13:53:21;36.58;;;13.98;;
54197;SDS011;40105;52.366;17.000;2023-03-19T13:55:49;42.22;;;16.30;;
54197;SDS011;40105;52.366;17.000;2023-03-19T13:58:19;35.65;;;14.77;;
54197;SDS011;40105;52.366;17.000;2023-03-19T14:01:04;31.50;;;12.98;;
54197;SDS011;40105;52.366;17.000;2023-03-19T14:03:30;30.95;;;13.45;;
54197;SDS011;40105;52.366;17.000;2023-03-19T14:05:57;29.83;;;12.50;;
54197;SDS011;40105;52.366;17.000;2023-03-19T14:08:39;27.60;;;12.48;;
54197;SDS011;40105;52.366;17.000;2023-03-19T14:11:06;27.58;;;12.13;;
54197;SDS011;40105;52.366;17.000;2023-03-19T14:13:33;30.02;;;11.40;;
54197;SDS011;40105;52.366;17.000;2023-03-19T14:16:18;34.83;;;12.30;;
54197;SDS011;40105;52.366;17.000;2023-03-19T14:18:45;29.92;;;13.52;;
54197;SDS011;40105;52.366;17.000;2023-03-19T14:21:15;27.55;;;10.50;;
54197;SDS011;40105;52.366;17.000;2023-03-19T14:23:41;26.70;;;11.65;;
54197;SDS011;40105;52.366;17.000;2023-03-19T14:26:16;30.05;;;11.15;;
54197;SDS011;40105;52.366;17.000;2023-03-19T14:28:45;23.73;;;11.68;;
54197;SDS011;40105;52.366;17.000;2023-03-19T14:31:19;33.10;;;12.32;;
54197;SDS011;40105;52.366;17.000;2023-03-19T14:33:47;31.75;;;12.13;;
54197;SDS011;40105;52.366;17.000;2023-03-19T14:36:16;25.42;;;12.68;;
54197;SDS011;40105;52.366;17.000;2023-03-19T14:41:26;40.20;;;13.27;;
54197;SDS011;40105;52.366;17.000;2023-03-19T14:44:11;27.95;;;12.85;;
54197;SDS011;40105;52.366;17.000;2023-03-19T14:46:58;27.48;;;12.07;;
54197;SDS011;40105;52.366;17.000;2023-03-19T14:52:21;26.20;;;12.35;;
54197;SDS011;40105;52.366;17.000;2023-03-19T14:54:54;26.88;;;12.48;;
54197;SDS011;40105;52.366;17.000;2023-03-19T14:57:21;26.67;;;12.20;;
54197;SDS011;40105;52.366;17.000;2023-03-19T14:59:49;27.73;;;10.05;;
54197;SDS011;40105;52.366;17.000;2023-03-19T15:02:18;26.53;;;12.33;;
54197;SDS011;40105;52.366;17.000;2023-03-19T15:04:44;27.95;;;11.35;;
54197;SDS011;40105;52.366;17.000;2023-03-19T15:07:12;28.15;;;13.20;;
54197;SDS011;40105;52.366;17.000;2023-03-19T15:09:41;25.17;;;12.52;;
54197;SDS011;40105;52.366;17.000;2023-03-19T15:14:52;26.67;;;13.05;;
54197;SDS011;40105;52.366;17.000;2023-03-19T15:17:26;28.52;;;13.70;;
54197;SDS011;40105;52.366;17.000;2023-03-19T15:19:52;32.50;;;13.43;;
54197;SDS011;40105;52.366;17.000;2023-03-19T15:22:21;32.13;;;13.57;;
54197;SDS011;40105;52.366;17.000;2023-03-19T15:24:49;36.00;;;12.23;;
54197;SDS011;40105;52.366;17.000;2023-03-19T15:27:19;33.85;;;13.25;;
54197;SDS011;40105;52.366;17.000;2023-03-19T15:29:44;25.75;;;11.93;;
54197;SDS011;40105;52.366;17.000;2023-03-19T15:32:10;34.87;;;14.00;;